Time,TemperatureF,DewpointF,PressureIn,WindDirection,WindDirectionDegrees,WindSpeedMPH,WindSpeedGustMPH,Humidity,HourlyPrecipIn,Conditions,Clouds,dailyrainin,SoftwareType,DateUTC
2013-01-25 00:00:00,1.8,-19.1,30.30,NW,316,0.0,0.0,36,0.00,CLR,,0.00,WeatherDisplay:10.37,2013-01-25 05:00:00,
2013-01-25 00:01:00,1.9,-18.9,30.30,NW,316,0.0,0.0,36,0.00,CLR,,0.00,WeatherDisplay:10.37,2013-01-25 05:01:00,
2013-01-25 00:03:00,1.9,-18.9,30.30,NW,317,0.0,0.0,36,0.00,CLR,,0.00,WeatherDisplay:10.37,2013-01-25 05:03:00,
2013-01-25 00:08:00,2.1,-18.8,30.30,NNW,329,0.0,0.0,36,0.00,CLR,,0.00,WeatherDisplay:10.37,2013-01-25 05:08:00,
2013-01-25 00:13:00,2.5,-18.5,30.30,NW,321,5.4,5.4,36,0.00,CLR,,0.00,WeatherDisplay:10.37,2013-01-25 05:13:00,
2013-01-25 00:18:00,3.0,-18.0,30.30,NW,313,4.6,4.6,36,0.00,CLR,,0.00,WeatherDisplay:10.37,2013-01-25 05:18:00,
2013-01-25 00:23:00,3.2,-17.8,30.30,NW,313,3.5,0.0,36,0.00,CLR,,0.00,WeatherDisplay:10.37,2013-01-25 05:23:00,
2013-01-25 00:28:00,3.6,-17.5,30.30,NW,313,0.0,0.0,36,0.00,CLR,,0.00,WeatherDisplay:10.37,2013-01-25 05:28:00,
2013-01-25 00:33:00,3.6,-17.5,30.30,NW,319,0.0,0.0,36,0.00,CLR,,0.00,WeatherDisplay:10.37,2013-01-25 05:33:00,
2013-01-25 00:38:00,3.7,-17.3,30.30,NW,316,6.9,6.9,36,0.00,CLR,,0.00,WeatherDisplay:10.37,2013-01-25 05:38:00,
2013-01-25 00:43:00,3.9,-17.2,30.30,NW,326,5.4,5.4,36,0.00,CLR,,0.00,WeatherDisplay:10.37,2013-01-25 05:43:00,
2013-01-25 00:48:00,4.1,-17.0,30.30,NW,326,0.0,0.0,36,0.00,CLR,,0.00,WeatherDisplay:10.37,2013-01-25 05:48:00,
2013-01-25 00:53:00,3.9,-17.2,30.30,NW,326,0.0,0.0,36,0.00,CLR,,0.00,WeatherDisplay:10.37,2013-01-25 05:53:00,
2013-01-25 00:59:00,3.7,-17.3,30.30,NW,326,0.0,0.0,36,0.00,CLR,,0.00,WeatherDisplay:10.37,2013-01-25 05:59:00,
2013-01-25 01:04:00,3.6,-17.5,30.30,NW,326,0.0,0.0,36,0.00,CLR,,0.00,WeatherDisplay:10.37,2013-01-25 06:04:00,
2013-01-25 01:09:00,3.4,-17.6,30.30,NW,326,3.5,3.5,36,0.00,CLR,,0.00,WeatherDisplay:10.37,2013-01-25 06:09:00,
2013-01-25 01:14:00,3.4,-17.6,30.30,NW,320,0.0,0.0,36,0.00,CLR,,0.00,WeatherDisplay:10.37,2013-01-25 06:14:00,
2013-01-25 01:19:00,3.6,-17.5,30.27,NW,317,0.0,0.0,36,0.00,CLR,,0.00,WeatherDisplay:10.37,2013-01-25 06:19:00,
2013-01-25 01:24:00,3.7,-17.3,30.27,NW,317,0.0,0.0,36,0.00,CLR,,0.00,WeatherDisplay:10.37,2013-01-25 06:24:00,
2013-01-25 01:29:00,3.7,-17.3,30.27,NW,317,0.0,0.0,36,0.00,CLR,,0.00,WeatherDisplay:10.37,2013-01-25 06:29:00,
2013-01-25 01:34:00,4.1,-17.0,30.27,NW,316,0.0,0.0,36,0.00,CLR,,0.00,WeatherDisplay:10.37,2013-01-25 06:34:00,
2013-01-25 01:39:00,4.5,-16.7,30.27,NNW,335,5.4,5.4,36,0.00,CLR,,0.00,WeatherDisplay:10.37,2013-01-25 06:39:00,
2013-01-25 01:44:00,4.8,-16.3,30.27,NW,317,5.8,5.8,36,0.00,CLR,,0.00,WeatherDisplay:10.37,2013-01-25 06:44:00,
2013-01-25 01:49:00,5.0,-16.2,30.27,NNW,335,3.6,3.6,36,0.00,CLR,,0.00,WeatherDisplay:10.37,2013-01-25 06:49:00,
2013-01-25 01:54:00,5.0,-16.2,30.27,NW,319,2.3,0.0,36,0.00,CLR,,0.00,WeatherDisplay:10.37,2013-01-25 06:54:00,
2013-01-25 01:59:00,5.0,-16.2,30.27,NW,319,0.0,0.0,36,0.00,CLR,,0.00,WeatherDisplay:10.37,2013-01-25 06:59:00,
2013-01-25 02:04:00,5.0,-16.2,30.27,NW,314,3.5,0.0,36,0.00,CLR,,0.00,WeatherDisplay:10.37,2013-01-25 07:04:00,
2013-01-25 02:09:00,5.0,-16.2,30.27,NW,314,0.0,0.0,36,0.00,CLR,,0.00,WeatherDisplay:10.37,2013-01-25 07:09:00,
2013-01-25 02:14:00,4.8,-16.3,30.27,NW,314,0.0,0.0,36,0.00,CLR,,0.00,WeatherDisplay:10.37,2013-01-25 07:14:00,
2013-01-25 02:19:00,4.5,-16.7,30.27,NW,314,0.0,0.0,36,0.00,CLR,,0.00,WeatherDisplay:10.37,2013-01-25 07:19:00,
2013-01-25 02:24:00,4.5,-16.7,30.27,NW,314,0.0,0.0,36,0.00,CLR,,0.00,WeatherDisplay:10.37,2013-01-25 07:24:00,
2013-01-25 02:29:00,4.3,-16.8,30.27,NW,314,0.0,0.0,36,0.00,CLR,,0.00,WeatherDisplay:10.37,2013-01-25 07:29:00,
2013-01-25 02:34:00,4.1,-17.0,30.27,NW,314,0.0,0.0,36,0.00,CLR,,0.00,WeatherDisplay:10.37,2013-01-25 07:34:00,
2013-01-25 02:39:00,4.1,-17.0,30.27,NW,314,0.0,0.0,36,0.00,CLR,,0.00,WeatherDisplay:10.37,2013-01-25 07:39:00,
2013-01-25 02:44:00,4.1,-17.0,30.27,NW,314,0.0,0.0,36,0.00,CLR,,0.00,WeatherDisplay:10.37,2013-01-25 07:44:00,
2013-01-25 02:49:00,4.3,-16.8,30.27,NW,314,3.5,0.0,36,0.00,CLR,,0.00,WeatherDisplay:10.37,2013-01-25 07:49:00,
2013-01-25 02:54:00,4.5,-16.7,30.27,NW,314,0.0,0.0,36,0.00,CLR,,0.00,WeatherDisplay:10.37,2013-01-25 07:54:00,
2013-01-25 02:59:00,4.5,-16.7,30.27,NW,314,3.5,3.5,36,0.00,CLR,,0.00,WeatherDisplay:10.37,2013-01-25 07:59:00,
2013-01-25 03:04:00,4.6,-16.5,30.27,NW,314,3.5,3.5,36,0.00,CLR,,0.00,WeatherDisplay:10.37,2013-01-25 08:04:00,
2013-01-25 03:09:00,5.0,-16.2,30.27,NW,314,3.5,3.5,36,0.00,CLR,,0.00,WeatherDisplay:10.37,2013-01-25 08:09:00,
2013-01-25 03:14:00,5.0,-16.2,30.27,NW,314,2.3,0.0,36,0.00,CLR,,0.00,WeatherDisplay:10.37,2013-01-25 08:14:00,
2013-01-25 03:19:00,5.0,-16.2,30.27,NW,314,0.0,0.0,36,0.00,CLR,,0.00,WeatherDisplay:10.37,2013-01-25 08:19:00,
2013-01-25 03:24:00,5.2,-16.0,30.27,NW,314,0.0,0.0,36,0.00,CLR,,0.00,WeatherDisplay:10.37,2013-01-25 08:24:00,
2013-01-25 03:29:00,5.2,-16.0,30.27,NW,314,0.0,0.0,36,0.00,CLR,,0.00,WeatherDisplay:10.37,2013-01-25 08:29:00,
2013-01-25 03:34:00,5.2,-16.0,30.24,NW,314,0.0,0.0,36,0.00,CLR,,0.00,WeatherDisplay:10.37,2013-01-25 08:34:00,
2013-01-25 03:39:00,5.4,-15.9,30.24,NW,314,0.0,0.0,36,0.00,CLR,,0.00,WeatherDisplay:10.37,2013-01-25 08:39:00,
2013-01-25 03:44:00,5.4,-15.9,30.24,NW,314,0.0,0.0,36,0.00,CLR,,0.00,WeatherDisplay:10.37,2013-01-25 08:44:00,
2013-01-25 03:49:00,5.4,-15.9,30.27,NW,314,0.0,0.0,36,0.00,CLR,,0.00,WeatherDisplay:10.37,2013-01-25 08:49:00,
2013-01-25 03:54:00,5.4,-15.9,30.27,NW,314,0.0,0.0,36,0.00,CLR,,0.00,WeatherDisplay:10.37,2013-01-25 08:54:00,
2013-01-25 03:59:00,5.4,-15.9,30.27,NW,314,0.0,0.0,36,0.00,CLR,,0.00,WeatherDisplay:10.37,2013-01-25 08:59:00,
2013-01-25 04:04:00,5.4,-15.9,30.27,NW,314,0.0,0.0,36,0.00,CLR,,0.00,WeatherDisplay:10.37,2013-01-25 09:04:00,
2013-01-25 04:09:00,5.4,-15.9,30.27,NW,314,0.0,0.0,36,0.00,CLR,,0.00,WeatherDisplay:10.37,2013-01-25 09:09:00,
2013-01-25 04:14:00,5.4,-15.9,30.27,NW,314,0.0,0.0,36,0.00,CLR,,0.00,WeatherDisplay:10.37,2013-01-25 09:14:00,
2013-01-25 04:19:00,5.4,-15.9,30.24,NW,314,0.0,0.0,36,0.00,CLR,,0.00,WeatherDisplay:10.37,2013-01-25 09:19:00,
2013-01-25 04:24:00,5.2,-16.0,30.24,NW,314,0.0,0.0,36,0.00,CLR,,0.00,WeatherDisplay:10.37,2013-01-25 09:24:00,
2013-01-25 04:29:00,5.2,-16.0,30.24,NW,314,0.0,0.0,36,0.00,CLR,,0.00,WeatherDisplay:10.37,2013-01-25 09:29:00,
2013-01-25 04:34:00,5.2,-16.0,30.24,NW,314,0.0,0.0,36,0.00,CLR,,0.00,WeatherDisplay:10.37,2013-01-25 09:34:00,
2013-01-25 04:39:00,5.2,-16.0,30.24,NW,314,0.0,0.0,36,0.00,CLR,,0.00,WeatherDisplay:10.37,2013-01-25 09:39:00,
2013-01-25 04:44:00,5.2,-16.0,30.24,NW,314,0.0,0.0,36,0.00,CLR,,0.00,WeatherDisplay:10.37,2013-01-25 09:44:00,
2013-01-25 04:49:00,5.2,-16.0,30.24,NW,314,0.0,0.0,36,0.00,CLR,,0.00,WeatherDisplay:10.37,2013-01-25 09:49:00,
2013-01-25 04:54:00,5.2,-16.0,30.24,NW,314,0.0,0.0,36,0.00,CLR,,0.00,WeatherDisplay:10.37,2013-01-25 09:54:00,
2013-01-25 04:59:00,5.2,-16.0,30.24,NW,314,0.0,0.0,36,0.00,CLR,,0.00,WeatherDisplay:10.37,2013-01-25 09:59:00,
2013-01-25 05:04:00,5.4,-15.9,30.21,NW,314,0.0,0.0,36,0.00,CLR,,0.00,WeatherDisplay:10.37,2013-01-25 10:04:00,
2013-01-25 05:09:00,5.4,-15.9,30.21,NW,314,0.0,0.0,36,0.00,CLR,,0.00,WeatherDisplay:10.37,2013-01-25 10:09:00,
2013-01-25 05:14:00,5.4,-15.9,30.21,NW,314,0.0,0.0,36,0.00,CLR,,0.00,WeatherDisplay:10.37,2013-01-25 10:14:00,
2013-01-25 05:19:00,5.4,-15.9,30.21,NW,314,0.0,0.0,36,0.00,CLR,,0.00,WeatherDisplay:10.37,2013-01-25 10:19:00,
2013-01-25 05:24:00,5.4,-15.9,30.21,NW,314,0.0,0.0,36,0.00,CLR,,0.00,WeatherDisplay:10.37,2013-01-25 10:24:00,
2013-01-25 05:29:00,5.5,-15.7,30.21,NW,314,0.0,0.0,36,0.00,CLR,,0.00,WeatherDisplay:10.37,2013-01-25 10:29:00,
2013-01-25 05:34:00,5.5,-15.7,30.21,NW,314,0.0,0.0,36,0.00,CLR,,0.00,WeatherDisplay:10.37,2013-01-25 10:34:00,
2013-01-25 05:39:00,5.5,-15.7,30.21,NW,314,0.0,0.0,36,0.00,CLR,,0.00,WeatherDisplay:10.37,2013-01-25 10:39:00,
2013-01-25 05:44:00,5.5,-15.7,30.21,NW,314,0.0,0.0,36,0.00,CLR,,0.00,WeatherDisplay:10.37,2013-01-25 10:44:00,
2013-01-25 05:49:00,5.5,-15.7,30.21,NW,314,0.0,0.0,36,0.00,CLR,,0.00,WeatherDisplay:10.37,2013-01-25 10:49:00,
2013-01-25 05:54:00,5.5,-15.7,30.21,NW,314,0.0,0.0,36,0.00,CLR,,0.00,WeatherDisplay:10.37,2013-01-25 10:54:00,
2013-01-25 05:59:00,5.7,-15.5,30.21,NW,314,0.0,0.0,36,0.00,CLR,,0.00,WeatherDisplay:10.37,2013-01-25 10:59:00,
2013-01-25 06:04:00,5.7,-15.5,30.21,NW,314,0.0,0.0,36,0.00,SCT,,0.00,WeatherDisplay:10.37,2013-01-25 11:04:00,
2013-01-25 06:10:00,5.7,-15.5,30.21,NW,314,0.0,0.0,36,0.00,SCT,,0.00,WeatherDisplay:10.37,2013-01-25 11:10:00,
2013-01-25 06:15:00,5.7,-15.5,30.21,NW,314,0.0,0.0,36,0.00,SCT,,0.00,WeatherDisplay:10.37,2013-01-25 11:15:00,
2013-01-25 06:20:00,5.7,-15.5,30.21,NW,314,0.0,0.0,36,0.00,SCT,,0.00,WeatherDisplay:10.37,2013-01-25 11:20:00,
2013-01-25 06:25:00,5.7,-15.5,30.21,NW,314,2.3,2.3,36,0.00,SCT,,0.00,WeatherDisplay:10.37,2013-01-25 11:25:00,
2013-01-25 06:30:00,5.7,-15.5,30.21,NW,314,4.0,0.0,36,0.00,SCT,,0.00,WeatherDisplay:10.37,2013-01-25 11:30:00,
2013-01-25 06:35:00,5.9,-15.4,30.21,NW,314,3.5,3.5,36,0.00,SCT,,0.00,WeatherDisplay:10.37,2013-01-25 11:35:00,
2013-01-25 06:40:00,5.9,-15.4,30.21,NW,314,4.0,0.0,36,0.00,SCT,,0.00,WeatherDisplay:10.37,2013-01-25 11:40:00,
2013-01-25 06:45:00,5.7,-15.5,30.21,NW,314,0.0,0.0,36,0.00,SCT,,0.00,WeatherDisplay:10.37,2013-01-25 11:45:00,
2013-01-25 06:50:00,5.7,-15.5,30.18,NW,315,0.0,0.0,36,0.00,SCT,,0.00,WeatherDisplay:10.37,2013-01-25 11:50:00,
2013-01-25 06:55:00,5.9,-15.4,30.18,East,100,0.0,0.0,36,0.00,SCT,,0.00,WeatherDisplay:10.37,2013-01-25 11:55:00,
2013-01-25 07:00:00,5.9,-15.4,30.18,ESE,115,3.6,0.0,36,0.00,SCT,,0.00,WeatherDisplay:10.37,2013-01-25 12:00:00,
2013-01-25 07:05:00,5.7,-15.5,30.18,ESE,121,3.5,3.5,36,0.00,SCT,,0.00,WeatherDisplay:10.37,2013-01-25 12:05:00,
2013-01-25 07:10:00,5.7,-15.5,30.18,ESE,121,2.7,0.0,36,0.00,SCT,,0.00,WeatherDisplay:10.37,2013-01-25 12:10:00,
2013-01-25 07:15:00,5.7,-15.5,30.18,SE,136,5.4,5.4,36,0.00,SCT,,0.00,WeatherDisplay:10.37,2013-01-25 12:15:00,
2013-01-25 07:20:00,5.7,-15.5,30.18,ESE,107,0.0,0.0,36,0.00,SCT,,0.00,WeatherDisplay:10.37,2013-01-25 12:20:00,
2013-01-25 07:25:00,5.5,-15.7,30.18,ESE,110,4.6,4.6,36,0.00,SCT,,0.00,WeatherDisplay:10.37,2013-01-25 12:25:00,
2013-01-25 07:30:00,5.5,-15.7,30.18,ESE,117,5.8,5.8,36,0.00,SCT,,0.00,WeatherDisplay:10.37,2013-01-25 12:30:00,
2013-01-25 07:35:00,5.7,-15.5,30.15,SE,137,5.8,5.8,36,0.00,SCT,,0.00,WeatherDisplay:10.37,2013-01-25 12:35:00,
2013-01-25 07:40:00,5.7,-15.5,30.15,SE,145,3.5,3.5,36,0.00,SCT,,0.00,WeatherDisplay:10.37,2013-01-25 12:40:00,
2013-01-25 07:45:00,5.7,-15.5,30.15,SSE,147,5.8,5.8,36,0.00,SCT,,0.00,WeatherDisplay:10.37,2013-01-25 12:45:00,
2013-01-25 07:50:00,5.9,-15.4,30.15,SSE,152,4.9,0.0,36,0.00,SCT,,0.00,WeatherDisplay:10.37,2013-01-25 12:50:00,
2013-01-25 07:55:00,5.9,-15.4,30.15,ESE,117,3.6,3.6,36,0.00,SCT,,0.00,WeatherDisplay:10.37,2013-01-25 12:55:00,
2013-01-25 08:00:00,5.9,-15.4,30.15,SE,129,5.8,5.8,36,0.00,SCT,,0.00,WeatherDisplay:10.37,2013-01-25 13:00:00,
2013-01-25 08:05:00,5.9,-15.4,30.15,SSE,155,3.6,0.0,36,0.00,SCT,,0.00,WeatherDisplay:10.37,2013-01-25 13:05:00,
2013-01-25 08:10:00,6.1,-15.2,30.15,SSE,154,4.9,4.9,36,0.00,SCT,,0.00,WeatherDisplay:10.37,2013-01-25 13:10:00,
2013-01-25 08:15:00,6.1,-15.2,30.15,ESE,119,5.8,5.8,36,0.00,SCT,,0.00,WeatherDisplay:10.37,2013-01-25 13:15:00,
2013-01-25 08:20:00,6.3,-15.1,30.15,ESE,117,0.0,0.0,36,0.00,SCT,,0.00,WeatherDisplay:10.37,2013-01-25 13:20:00,
2013-01-25 08:25:00,6.4,-14.9,30.15,SE,132,9.2,9.2,36,0.00,SCT,,0.00,WeatherDisplay:10.37,2013-01-25 13:25:00,
2013-01-25 08:30:00,6.4,-14.9,30.15,SE,135,5.8,5.8,36,0.00,SCT,,0.00,WeatherDisplay:10.37,2013-01-25 13:30:00,
2013-01-25 08:35:00,6.8,-14.6,30.12,SSE,147,5.8,5.8,36,0.00,SCT,,0.00,WeatherDisplay:10.37,2013-01-25 13:35:00,
2013-01-25 08:40:00,6.8,-14.6,30.12,ESE,110,5.8,5.8,36,0.00,OVC,,0.00,WeatherDisplay:10.37,2013-01-25 13:40:00,
2013-01-25 08:45:00,7.0,-14.4,30.12,SE,140,10.4,10.4,36,0.00,OVC,,0.00,WeatherDisplay:10.37,2013-01-25 13:45:00,
2013-01-25 08:50:00,7.0,-14.4,30.12,ESE,113,9.2,9.2,36,0.00,OVC,,0.00,WeatherDisplay:10.37,2013-01-25 13:50:00,
2013-01-25 08:55:00,7.2,-14.2,30.12,ESE,115,5.8,5.8,36,0.00,OVC,,0.00,WeatherDisplay:10.37,2013-01-25 13:55:00,
2013-01-25 09:00:00,7.2,-14.2,30.12,SE,124,10.4,10.4,36,0.00,OVC,,0.00,WeatherDisplay:10.37,2013-01-25 14:00:00,
2013-01-25 09:05:00,7.3,-14.1,30.09,ESE,122,8.1,8.1,36,0.00,OVC,,0.00,WeatherDisplay:10.37,2013-01-25 14:05:00,
2013-01-25 09:10:00,7.3,-14.1,30.09,ESE,114,8.1,8.1,36,0.00,OVC,,0.00,WeatherDisplay:10.37,2013-01-25 14:10:00,
2013-01-25 09:15:00,7.3,-14.1,30.09,SE,128,9.2,9.2,36,0.00,OVC,,0.00,WeatherDisplay:10.37,2013-01-25 14:15:00,
2013-01-25 09:20:00,7.5,-13.9,30.09,SE,128,8.1,8.1,36,0.00,OVC,,0.00,WeatherDisplay:10.37,2013-01-25 14:20:00,
2013-01-25 09:25:00,7.7,-13.8,30.09,SSW,208,9.2,9.2,36,0.00,OVC,,0.00,WeatherDisplay:10.37,2013-01-25 14:25:00,
2013-01-25 09:30:00,7.9,-13.6,30.09,SE,133,7.6,7.6,36,0.00,OVC,,0.00,WeatherDisplay:10.37,2013-01-25 14:30:00,
2013-01-25 09:35:00,7.9,-13.6,30.09,South,190,8.1,8.1,36,0.00,OVC,,0.00,WeatherDisplay:10.37,2013-01-25 14:35:00,
2013-01-25 09:40:00,8.2,-13.3,30.09,SSE,159,11.5,11.5,36,0.00,OVC,,0.00,WeatherDisplay:10.37,2013-01-25 14:40:00,
2013-01-25 09:45:00,8.4,-13.1,30.09,South,178,9.2,9.2,36,0.00,OVC,,0.00,WeatherDisplay:10.37,2013-01-25 14:45:00,
2013-01-25 09:50:00,8.4,-13.1,30.12,SSE,159,9.2,9.2,36,0.00,OVC,,0.00,WeatherDisplay:10.37,2013-01-25 14:50:00,
2013-01-25 09:55:00,8.4,-13.1,30.12,SE,142,5.8,5.8,36,0.00,OVC,,0.00,WeatherDisplay:10.37,2013-01-25 14:55:00,
2013-01-25 10:00:00,8.6,-13.0,30.12,SSW,193,6.3,6.3,36,0.00,OVC,,0.00,WeatherDisplay:10.37,2013-01-25 15:00:00,
2013-01-25 10:05:00,8.8,-12.8,30.12,SSE,167,5.8,5.8,36,0.00,OVC,,0.00,WeatherDisplay:10.37,2013-01-25 15:05:00,
2013-01-25 10:10:00,9.1,-12.5,30.12,SE,143,4.9,4.9,36,0.00,OVC,,0.00,WeatherDisplay:10.37,2013-01-25 15:10:00,
2013-01-25 10:15:00,9.3,-12.3,30.12,ESE,113,4.6,4.6,36,0.00,OVC,,0.00,WeatherDisplay:10.37,2013-01-25 15:15:00,
2013-01-25 10:20:00,9.3,-12.3,30.12,SSE,150,6.9,6.9,36,0.00,OVC,,0.00,WeatherDisplay:10.37,2013-01-25 15:20:00,
2013-01-25 10:25:00,9.5,-12.1,30.12,SE,138,8.1,8.1,36,0.00,-SN,,0.00,WeatherDisplay:10.37,2013-01-25 15:25:00,
2013-01-25 10:30:00,9.3,-12.3,30.12,SSE,152,8.3,8.3,36,0.00,-SN,,0.00,WeatherDisplay:10.37,2013-01-25 15:30:00,
2013-01-25 10:35:00,9.3,-12.3,30.09,ESE,115,8.1,8.1,36,0.00,-SN,,0.00,WeatherDisplay:10.37,2013-01-25 15:35:00,
2013-01-25 10:40:00,9.1,-12.5,30.09,SSE,147,8.1,8.1,36,0.00,-SN,,0.00,WeatherDisplay:10.37,2013-01-25 15:40:00,
2013-01-25 10:45:00,9.1,-12.5,30.09,ESE,109,8.1,8.1,36,0.00,-SN,,0.00,WeatherDisplay:10.37,2013-01-25 15:45:00,
2013-01-25 10:50:00,9.1,-12.5,30.09,ESE,122,9.2,9.2,36,0.00,-SN,,0.00,WeatherDisplay:10.37,2013-01-25 15:50:00,
2013-01-25 10:55:00,9.1,-12.5,30.09,SE,129,8.1,8.1,36,0.00,-SN,,0.00,WeatherDisplay:10.37,2013-01-25 15:55:00,
2013-01-25 11:00:00,9.1,-12.5,30.09,ESE,114,5.8,5.8,36,0.00,-SN,,0.00,WeatherDisplay:10.37,2013-01-25 16:00:00,
2013-01-25 11:05:00,9.1,-12.5,30.09,ESE,120,8.1,8.1,36,0.00,-SN,,0.00,WeatherDisplay:10.37,2013-01-25 16:05:00,
2013-01-25 11:10:00,9.3,-12.3,30.09,SE,143,5.8,5.8,36,0.00,-SN,,0.00,WeatherDisplay:10.37,2013-01-25 16:10:00,
2013-01-25 11:15:00,9.5,-12.1,30.09,SSE,168,11.5,11.5,36,0.00,-SN,,0.00,WeatherDisplay:10.37,2013-01-25 16:15:00,
2013-01-25 11:20:00,9.5,-12.1,30.06,South,171,8.1,8.1,36,0.00,-SN,,0.00,WeatherDisplay:10.37,2013-01-25 16:20:00,
2013-01-25 11:26:00,9.7,-12.0,30.06,SE,146,9.2,9.2,36,0.00,-SN,,0.00,WeatherDisplay:10.37,2013-01-25 16:26:00,
2013-01-25 11:31:00,9.7,-12.0,30.06,SE,140,8.1,8.1,36,0.00,-SN,,0.00,WeatherDisplay:10.37,2013-01-25 16:31:00,
2013-01-25 11:36:00,9.9,-11.8,30.03,SSE,165,9.2,9.2,36,0.00,-SN,,0.00,WeatherDisplay:10.37,2013-01-25 16:36:00,
2013-01-25 11:41:00,9.9,-11.8,30.03,SE,127,9.6,9.6,36,0.00,-SN,,0.00,WeatherDisplay:10.37,2013-01-25 16:41:00,
2013-01-25 11:46:00,10.0,-11.7,30.03,SSE,159,5.8,5.8,36,0.00,-SN,,0.00,WeatherDisplay:10.37,2013-01-25 16:46:00,
2013-01-25 11:51:00,10.0,-11.7,30.03,East,98,8.1,8.1,36,0.00,-SN,,0.00,WeatherDisplay:10.37,2013-01-25 16:51:00,
2013-01-25 11:56:00,10.2,-11.5,30.03,SE,127,10.4,10.4,36,0.00,-SN,,0.00,WeatherDisplay:10.37,2013-01-25 16:56:00,
2013-01-25 12:01:00,10.2,-11.5,30.03,SE,143,5.8,5.8,36,0.00,-SN,,0.00,WeatherDisplay:10.37,2013-01-25 17:01:00,
2013-01-25 12:06:00,10.4,-11.3,30.00,SE,132,13.2,13.2,36,0.00,-SN,,0.00,WeatherDisplay:10.37,2013-01-25 17:06:00,
2013-01-25 12:11:00,10.2,-11.5,30.00,East,98,10.4,10.4,36,0.00,-SN,,0.00,WeatherDisplay:10.37,2013-01-25 17:11:00,
2013-01-25 12:16:00,10.2,-11.5,30.00,SE,139,8.1,8.1,36,0.00,-SN,,0.00,WeatherDisplay:10.37,2013-01-25 17:16:00,
2013-01-25 12:21:00,10.2,-11.5,30.00,SE,139,5.8,5.8,36,0.00,-SN,,0.00,WeatherDisplay:10.37,2013-01-25 17:21:00,
2013-01-25 12:26:00,10.0,-11.7,30.00,SE,141,8.1,8.1,36,0.00,-SN,,0.00,WeatherDisplay:10.37,2013-01-25 17:26:00,
2013-01-25 12:31:00,10.0,-11.7,30.00,SE,146,5.8,5.8,36,0.00,-SN,,0.00,WeatherDisplay:10.37,2013-01-25 17:31:00,
2013-01-25 12:36:00,10.0,-11.7,29.97,SE,134,9.2,9.2,36,0.00,-SN,,0.00,WeatherDisplay:10.37,2013-01-25 17:36:00,
2013-01-25 12:41:00,10.0,-11.7,29.97,SE,137,5.8,5.8,36,0.00,-SN,,0.00,WeatherDisplay:10.37,2013-01-25 17:41:00,
2013-01-25 12:46:00,10.2,-11.5,29.97,SE,136,9.2,9.2,36,0.00,-SN,,0.00,WeatherDisplay:10.37,2013-01-25 17:46:00,
2013-01-25 12:51:00,10.2,-11.5,29.97,SE,129,8.7,8.7,36,0.00,-SN,,0.00,WeatherDisplay:10.37,2013-01-25 17:51:00,
2013-01-25 12:56:00,10.2,-11.5,29.97,SE,131,5.8,5.8,36,0.00,-SN,,0.00,WeatherDisplay:10.37,2013-01-25 17:56:00,
2013-01-25 13:01:00,10.2,-11.5,29.97,SE,138,3.5,3.6,36,0.00,-SN,,0.00,WeatherDisplay:10.37,2013-01-25 18:01:00,
2013-01-25 13:06:00,10.4,-11.3,29.97,SSE,148,5.8,5.8,36,0.00,-SN,,0.00,WeatherDisplay:10.37,2013-01-25 18:06:00,
2013-01-25 13:11:00,10.4,-11.3,29.97,ESE,117,8.1,8.1,36,0.00,-SN,,0.00,WeatherDisplay:10.37,2013-01-25 18:11:00,
2013-01-25 13:16:00,10.4,-11.3,29.97,SSE,164,10.4,10.4,36,0.00,-SN,,0.00,WeatherDisplay:10.37,2013-01-25 18:16:00,
2013-01-25 13:21:00,10.4,-11.3,29.97,South,182,3.5,3.5,36,0.00,-SN,,0.00,WeatherDisplay:10.37,2013-01-25 18:21:00,
2013-01-25 13:26:00,10.4,-11.3,29.97,SE,131,8.3,8.3,36,0.00,-SN,,0.00,WeatherDisplay:10.37,2013-01-25 18:26:00,
2013-01-25 13:31:00,10.4,-11.3,29.97,SE,133,5.8,5.8,36,0.00,-SN,,0.00,WeatherDisplay:10.37,2013-01-25 18:31:00,
2013-01-25 13:36:00,10.4,-11.3,29.94,SE,146,6.9,6.9,36,0.00,-SN,,0.00,WeatherDisplay:10.37,2013-01-25 18:36:00,
2013-01-25 13:41:00,10.6,-11.2,29.94,SE,145,9.2,9.2,36,0.00,-SN,,0.00,WeatherDisplay:10.37,2013-01-25 18:41:00,
2013-01-25 13:46:00,10.6,-11.2,29.94,SE,144,5.4,5.4,36,0.00,-SN,,0.00,WeatherDisplay:10.37,2013-01-25 18:46:00,
2013-01-25 13:51:00,10.8,-11.0,29.94,ESE,121,9.2,9.2,36,0.00,-SN,,0.00,WeatherDisplay:10.37,2013-01-25 18:51:00,
2013-01-25 13:56:00,10.8,-11.0,29.94,SE,145,5.8,5.8,36,0.00,-SN,,0.00,WeatherDisplay:10.37,2013-01-25 18:56:00,
2013-01-25 14:01:00,10.8,-11.0,29.94,ESE,110,8.1,8.1,36,0.00,-SN,,0.00,WeatherDisplay:10.37,2013-01-25 19:01:00,
2013-01-25 14:06:00,10.8,-11.0,29.94,SE,136,5.8,5.8,36,0.00,-SN,,0.00,WeatherDisplay:10.37,2013-01-25 19:06:00,
2013-01-25 14:11:00,10.8,-11.0,29.94,ESE,116,5.8,5.8,36,0.00,-SN,,0.00,WeatherDisplay:10.37,2013-01-25 19:11:00,
2013-01-25 14:16:00,10.9,-10.8,29.94,SSE,156,5.8,5.8,36,0.00,-SN,,0.00,WeatherDisplay:10.37,2013-01-25 19:16:00,
2013-01-25 14:21:00,10.9,-10.8,29.91,SE,126,9.2,9.2,36,0.00,-SN,,0.00,WeatherDisplay:10.37,2013-01-25 19:21:00,
2013-01-25 14:26:00,11.1,-10.7,29.91,SSE,154,5.8,5.8,36,0.00,-SN,,0.00,WeatherDisplay:10.37,2013-01-25 19:26:00,
2013-01-25 14:31:00,11.1,-10.7,29.91,South,187,9.2,9.2,36,0.00,-SN,,0.00,WeatherDisplay:10.37,2013-01-25 19:31:00,
2013-01-25 14:36:00,11.1,-10.7,29.91,South,170,5.8,5.8,36,0.00,-SN,,0.00,WeatherDisplay:10.37,2013-01-25 19:36:00,
2013-01-25 14:41:00,11.3,-10.5,29.91,SSE,152,6.3,6.3,36,0.00,-SN,,0.00,WeatherDisplay:10.37,2013-01-25 19:41:00,
2013-01-25 14:46:00,11.3,-10.5,29.91,SE,131,8.1,8.1,36,0.00,-SN,,0.00,WeatherDisplay:10.37,2013-01-25 19:46:00,
2013-01-25 14:51:00,11.5,-10.4,29.91,SE,131,5.8,5.8,36,0.00,-SN,,0.00,WeatherDisplay:10.37,2013-01-25 19:51:00,
2013-01-25 14:56:00,11.7,-10.2,29.91,SSE,160,2.3,0.0,36,0.00,-SN,,0.00,WeatherDisplay:10.37,2013-01-25 19:56:00,
2013-01-25 15:01:00,11.8,-10.0,29.91,SSE,168,5.8,5.8,36,0.00,-SN,,0.00,WeatherDisplay:10.37,2013-01-25 20:01:00,
2013-01-25 15:06:00,12.0,-9.9,29.91,SSE,162,3.6,4.0,36,0.00,-SN,,0.00,WeatherDisplay:10.37,2013-01-25 20:06:00,
2013-01-25 15:11:00,12.0,-9.9,29.91,SSW,195,4.6,4.6,36,0.00,-SN,,0.00,WeatherDisplay:10.37,2013-01-25 20:11:00,
2013-01-25 15:16:00,12.2,-9.7,29.91,SSW,211,3.6,3.6,36,0.00,-SN,,0.00,WeatherDisplay:10.37,2013-01-25 20:16:00,
2013-01-25 15:21:00,12.2,-9.7,29.91,SSE,162,8.1,8.1,36,0.00,CLR,,0.00,WeatherDisplay:10.37,2013-01-25 20:21:00,
2013-01-25 15:26:00,12.4,-9.6,29.91,South,175,6.3,6.3,36,0.00,CLR,,0.00,WeatherDisplay:10.37,2013-01-25 20:26:00,
2013-01-25 15:31:00,12.6,-9.4,29.91,South,174,5.8,5.8,36,0.00,CLR,,0.00,WeatherDisplay:10.37,2013-01-25 20:31:00,
2013-01-25 15:36:00,12.6,-9.4,29.91,SE,130,5.8,5.8,36,0.00,CLR,,0.00,WeatherDisplay:10.37,2013-01-25 20:36:00,
2013-01-25 15:41:00,12.6,-9.4,29.91,SE,134,5.8,5.8,36,0.00,CLR,,0.00,WeatherDisplay:10.37,2013-01-25 20:41:00,
2013-01-25 15:46:00,12.6,-9.4,29.91,SE,125,4.0,4.0,36,0.00,CLR,,0.00,WeatherDisplay:10.37,2013-01-25 20:46:00,
2013-01-25 15:51:00,12.6,-9.4,29.88,ESE,121,5.8,5.8,36,0.00,CLR,,0.00,WeatherDisplay:10.37,2013-01-25 20:51:00,
2013-01-25 15:56:00,12.6,-9.4,29.88,SE,126,0.0,0.0,36,0.00,CLR,,0.00,WeatherDisplay:10.37,2013-01-25 20:56:00,
2013-01-25 16:01:00,12.6,-9.4,29.88,ESE,120,8.1,8.1,36,0.00,CLR,,0.00,WeatherDisplay:10.37,2013-01-25 21:01:00,
2013-01-25 16:06:00,12.6,-9.4,29.88,SSE,155,5.8,5.8,36,0.00,CLR,,0.00,WeatherDisplay:10.37,2013-01-25 21:06:00,
2013-01-25 16:11:00,12.6,-9.4,29.88,SE,145,3.5,3.5,36,0.00,CLR,,0.00,WeatherDisplay:10.37,2013-01-25 21:11:00,
2013-01-25 16:16:00,12.6,-9.4,29.88,SE,134,4.6,4.6,36,0.00,CLR,,0.00,WeatherDisplay:10.37,2013-01-25 21:16:00,
2013-01-25 16:21:00,12.6,-9.4,29.88,ESE,123,4.5,4.5,36,0.00,CLR,,0.00,WeatherDisplay:10.37,2013-01-25 21:21:00,
2013-01-25 16:26:00,12.7,-9.2,29.88,SE,136,4.6,4.6,36,0.00,CLR,,0.00,WeatherDisplay:10.37,2013-01-25 21:26:00,
2013-01-25 16:31:00,12.7,-9.2,29.88,SSE,155,3.5,0.0,36,0.00,CLR,,0.00,WeatherDisplay:10.37,2013-01-25 21:31:00,
2013-01-25 16:36:00,12.6,-9.4,29.88,ESE,123,5.8,5.8,36,0.00,-SN,,0.00,WeatherDisplay:10.37,2013-01-25 21:36:00,
2013-01-25 16:41:00,12.6,-9.4,29.88,ESE,113,4.6,4.6,36,0.00,-SN,,0.00,WeatherDisplay:10.37,2013-01-25 21:41:00,
2013-01-25 16:46:00,12.6,-9.4,29.88,SE,135,3.5,0.0,36,0.00,-SN,,0.00,WeatherDisplay:10.37,2013-01-25 21:46:00,
2013-01-25 16:51:00,12.6,-9.4,29.88,SE,125,0.0,0.0,36,0.00,-SN,,0.00,WeatherDisplay:10.37,2013-01-25 21:51:00,
2013-01-25 16:56:00,12.4,-9.6,29.88,SE,146,0.0,0.0,36,0.00,-SN,,0.00,WeatherDisplay:10.37,2013-01-25 21:56:00,
2013-01-25 17:01:00,12.2,-9.7,29.88,SE,146,0.0,0.0,36,0.00,-SN,,0.00,WeatherDisplay:10.37,2013-01-25 22:01:00,
2013-01-25 17:06:00,12.2,-9.7,29.88,SE,124,0.0,0.0,36,0.00,-SN,,0.00,WeatherDisplay:10.37,2013-01-25 22:06:00,
2013-01-25 17:11:00,12.0,-9.9,29.88,SE,124,5.8,0.0,36,0.00,-SN,,0.00,WeatherDisplay:10.37,2013-01-25 22:11:00,
2013-01-25 17:16:00,11.8,-10.0,29.88,SE,124,0.0,0.0,36,0.00,-SN,,0.00,WeatherDisplay:10.37,2013-01-25 22:16:00,
2013-01-25 17:21:00,11.8,-10.0,29.88,SE,124,0.0,0.0,36,0.00,-SN,,0.00,WeatherDisplay:10.37,2013-01-25 22:21:00,
2013-01-25 17:26:00,11.7,-10.2,29.88,SE,124,0.0,0.0,36,0.00,-SN,,0.00,WeatherDisplay:10.37,2013-01-25 22:26:00,
2013-01-25 17:31:00,11.7,-10.2,29.88,SE,130,0.0,0.0,36,0.00,-SN,,0.00,WeatherDisplay:10.37,2013-01-25 22:31:00,
2013-01-25 17:36:00,11.7,-10.2,29.88,SE,131,0.0,0.0,36,0.00,-SN,,0.00,WeatherDisplay:10.37,2013-01-25 22:36:00,
2013-01-25 17:41:00,11.7,-10.2,29.88,SE,131,0.0,0.0,36,0.00,-SN,,0.00,WeatherDisplay:10.37,2013-01-25 22:41:00,
2013-01-25 17:46:00,11.7,-10.2,29.88,SE,131,0.0,0.0,36,0.00,-SN,,0.00,WeatherDisplay:10.37,2013-01-25 22:46:00,
2013-01-25 17:51:00,11.7,-10.2,29.88,SE,137,0.0,0.0,36,0.00,-SN,,0.00,WeatherDisplay:10.37,2013-01-25 22:51:00,
2013-01-25 17:56:00,11.5,-10.4,29.88,SE,132,0.0,0.0,36,0.00,-SN,,0.00,WeatherDisplay:10.37,2013-01-25 22:56:00,
2013-01-25 18:01:00,11.5,-10.4,29.88,SE,144,0.0,0.0,36,0.00,-SN,,0.00,WeatherDisplay:10.37,2013-01-25 23:01:00,
2013-01-25 18:06:00,11.5,-10.4,29.88,SE,135,0.0,0.0,36,0.00,-SN,,0.00,WeatherDisplay:10.37,2013-01-25 23:06:00,
2013-01-25 18:11:00,11.5,-10.4,29.88,SE,136,0.0,0.0,36,0.00,-SN,,0.00,WeatherDisplay:10.37,2013-01-25 23:11:00,
2013-01-25 18:16:00,11.5,-10.4,29.88,SE,125,0.0,0.0,36,0.00,-SN,,0.00,WeatherDisplay:10.37,2013-01-25 23:16:00,
2013-01-25 18:21:00,11.5,-10.4,29.88,SSE,162,0.0,0.0,36,0.00,-SN,,0.00,WeatherDisplay:10.37,2013-01-25 23:21:00,
2013-01-25 18:26:00,11.7,-10.2,29.88,SE,146,0.0,0.0,36,0.00,-SN,,0.00,WeatherDisplay:10.37,2013-01-25 23:26:00,
2013-01-25 18:31:00,11.7,-10.2,29.88,SSE,160,0.0,0.0,36,0.00,-SN,,0.00,WeatherDisplay:10.37,2013-01-25 23:31:00,
2013-01-25 18:36:00,11.7,-10.2,29.88,SSE,150,0.0,0.0,36,0.00,-SN,,0.00,WeatherDisplay:10.37,2013-01-25 23:36:00,
2013-01-25 18:41:00,11.7,-10.2,29.88,SSE,150,0.0,0.0,36,0.00,-SN,,0.00,WeatherDisplay:10.37,2013-01-25 23:41:00,
2013-01-25 18:46:00,11.7,-10.2,29.88,SSE,150,0.0,0.0,36,0.00,-SN,,0.00,WeatherDisplay:10.37,2013-01-25 23:46:00,
2013-01-25 18:51:00,11.7,-10.2,29.88,SSE,150,0.0,0.0,36,0.00,-SN,,0.00,WeatherDisplay:10.37,2013-01-25 23:51:00,
2013-01-25 18:56:00,11.8,-10.0,29.88,SE,135,0.0,0.0,36,0.00,-SN,,0.00,WeatherDisplay:10.37,2013-01-25 23:56:00,
2013-01-25 19:01:00,11.8,-10.0,29.88,SE,136,0.0,0.0,36,0.00,-SN,,0.00,WeatherDisplay:10.37,2013-01-26 00:01:00,
2013-01-25 19:06:00,11.8,-10.0,29.88,SE,136,0.0,0.0,36,0.00,-SN,,0.00,WeatherDisplay:10.37,2013-01-26 00:06:00,
2013-01-25 19:11:00,11.8,-10.0,29.88,SE,136,0.0,0.0,36,0.00,-SN,,0.00,WeatherDisplay:10.37,2013-01-26 00:11:00,
2013-01-25 19:16:00,11.8,-10.0,29.88,SE,136,0.0,0.0,36,0.00,-SN,,0.00,WeatherDisplay:10.37,2013-01-26 00:16:00,
2013-01-25 19:21:00,11.8,-10.0,29.88,SE,136,0.0,0.0,36,0.00,-SN,,0.00,WeatherDisplay:10.37,2013-01-26 00:21:00,
2013-01-25 19:26:00,11.8,-10.0,29.88,SE,136,0.0,0.0,36,0.00,-SN,,0.00,WeatherDisplay:10.37,2013-01-26 00:26:00,
2013-01-25 19:31:00,11.8,-10.0,29.88,SE,136,0.0,0.0,36,0.00,-SN,,0.00,WeatherDisplay:10.37,2013-01-26 00:31:00,
2013-01-25 19:36:00,11.8,-10.0,29.88,SE,136,0.0,0.0,36,0.00,-SN,,0.00,WeatherDisplay:10.37,2013-01-26 00:36:00,
2013-01-25 19:41:00,11.8,-10.0,29.88,SE,136,0.0,0.0,36,0.00,-SN,,0.00,WeatherDisplay:10.37,2013-01-26 00:41:00,
2013-01-25 19:46:00,12.0,-9.9,29.88,SE,136,0.0,0.0,36,0.00,-SN,,0.00,WeatherDisplay:10.37,2013-01-26 00:46:00,
2013-01-25 19:51:00,12.0,-9.9,29.88,SE,136,0.0,0.0,36,0.00,-SN,,0.00,WeatherDisplay:10.37,2013-01-26 00:51:00,
2013-01-25 19:56:00,12.0,-9.9,29.88,SE,136,0.0,0.0,36,0.00,-SN,,0.00,WeatherDisplay:10.37,2013-01-26 00:56:00,
2013-01-25 20:01:00,12.0,-9.9,29.88,SE,136,0.0,0.0,36,0.00,-SN,,0.00,WeatherDisplay:10.37,2013-01-26 01:01:00,
2013-01-25 20:06:00,12.0,-9.9,29.88,SW,219,0.0,0.0,36,0.00,-SN,,0.00,WeatherDisplay:10.37,2013-01-26 01:06:00,
2013-01-25 20:11:00,12.0,-9.9,29.88,SW,218,0.0,0.0,36,0.00,-SN,,0.00,WeatherDisplay:10.37,2013-01-26 01:11:00,
2013-01-25 20:16:00,12.0,-9.9,29.88,SSW,208,3.5,0.0,36,0.00,-SN,,0.00,WeatherDisplay:10.37,2013-01-26 01:16:00,
2013-01-25 20:21:00,12.2,-9.7,29.88,SW,223,0.0,0.0,36,0.00,-SN,,0.00,WeatherDisplay:10.37,2013-01-26 01:21:00,
2013-01-25 20:27:00,12.2,-9.7,29.88,SW,223,0.0,0.0,36,0.00,-SN,,0.00,WeatherDisplay:10.37,2013-01-26 01:27:00,
2013-01-25 20:32:00,12.2,-9.7,29.88,SW,223,0.0,0.0,36,0.00,-SN,,0.00,WeatherDisplay:10.37,2013-01-26 01:32:00,
2013-01-25 20:37:00,12.2,-9.7,29.88,SW,223,0.0,0.0,36,0.00,-SN,,0.00,WeatherDisplay:10.37,2013-01-26 01:37:00,
2013-01-25 20:42:00,12.4,-9.6,29.88,SW,223,0.0,0.0,36,0.00,-SN,,0.00,WeatherDisplay:10.37,2013-01-26 01:42:00,
2013-01-25 20:47:00,12.4,-9.6,29.88,SW,223,0.0,0.0,36,0.00,-SN,,0.00,WeatherDisplay:10.37,2013-01-26 01:47:00,
2013-01-25 20:52:00,12.6,-9.4,29.88,SW,223,0.0,0.0,36,0.00,-SN,,0.00,WeatherDisplay:10.37,2013-01-26 01:52:00,
2013-01-25 20:57:00,12.6,-9.4,29.88,SW,223,0.0,0.0,36,0.00,-SN,,0.00,WeatherDisplay:10.37,2013-01-26 01:57:00,
2013-01-25 21:02:00,12.6,-9.4,29.88,SW,223,0.0,0.0,36,0.00,OVC,,0.00,WeatherDisplay:10.37,2013-01-26 02:02:00,
2013-01-25 21:07:00,12.6,-9.4,29.88,West,277,0.0,0.0,36,0.00,OVC,,0.00,WeatherDisplay:10.37,2013-01-26 02:07:00,
2013-01-25 21:12:00,12.6,-9.4,29.88,SW,230,0.0,0.0,36,0.00,OVC,,0.00,WeatherDisplay:10.37,2013-01-26 02:12:00,
2013-01-25 21:17:00,12.6,-9.4,29.88,SW,229,3.6,3.6,36,0.00,OVC,,0.00,WeatherDisplay:10.37,2013-01-26 02:17:00,
2013-01-25 21:22:00,12.6,-9.4,29.88,SW,222,3.5,0.0,36,0.00,OVC,,0.00,WeatherDisplay:10.37,2013-01-26 02:22:00,
2013-01-25 21:27:00,12.6,-9.4,29.88,SW,222,3.5,3.5,36,0.00,OVC,,0.00,WeatherDisplay:10.37,2013-01-26 02:27:00,
2013-01-25 21:32:00,12.6,-9.4,29.88,WSW,250,5.8,0.0,36,0.00,OVC,,0.00,WeatherDisplay:10.37,2013-01-26 02:32:00,
2013-01-25 21:37:00,12.7,-9.2,29.88,WSW,240,3.5,0.0,36,0.00,OVC,,0.00,WeatherDisplay:10.37,2013-01-26 02:37:00,
2013-01-25 21:42:00,12.7,-9.2,29.88,WSW,247,0.0,0.0,36,0.00,OVC,,0.00,WeatherDisplay:10.37,2013-01-26 02:42:00,
2013-01-25 21:47:00,12.9,-9.1,29.88,WSW,244,3.1,0.0,36,0.00,OVC,,0.00,WeatherDisplay:10.37,2013-01-26 02:47:00,
2013-01-25 21:52:00,13.1,-8.9,29.88,WSW,254,3.1,0.0,36,0.00,OVC,,0.00,WeatherDisplay:10.37,2013-01-26 02:52:00,
2013-01-25 21:57:00,13.3,-8.7,29.88,WSW,248,8.0,8.0,36,0.00,OVC,,0.00,WeatherDisplay:10.37,2013-01-26 02:57:00,
2013-01-25 22:02:00,13.5,-8.6,29.88,WNW,289,0.0,0.0,36,0.00,OVC,,0.00,WeatherDisplay:10.37,2013-01-26 03:02:00,
2013-01-25 22:07:00,13.5,-8.6,29.88,WNW,294,0.0,0.0,36,0.00,OVC,,0.00,WeatherDisplay:10.37,2013-01-26 03:07:00,
2013-01-25 22:12:00,13.5,-8.6,29.88,West,265,5.8,0.0,36,0.00,OVC,,0.00,WeatherDisplay:10.37,2013-01-26 03:12:00,
2013-01-25 22:17:00,13.6,-8.4,29.88,WNW,292,0.0,0.0,36,0.00,OVC,,0.00,WeatherDisplay:10.37,2013-01-26 03:17:00,
2013-01-25 22:22:00,13.6,-8.4,29.88,WSW,246,3.1,0.0,36,0.00,OVC,,0.00,WeatherDisplay:10.37,2013-01-26 03:22:00,
2013-01-25 22:27:00,13.6,-8.4,29.88,WNW,287,3.5,4.5,36,0.00,OVC,,0.00,WeatherDisplay:10.37,2013-01-26 03:27:00,
2013-01-25 22:32:00,13.8,-8.3,29.88,WSW,249,4.0,4.0,36,0.00,OVC,,0.00,WeatherDisplay:10.37,2013-01-26 03:32:00,
2013-01-25 22:37:00,13.8,-8.3,29.88,WNW,290,7.6,7.6,36,0.00,OVC,,0.00,WeatherDisplay:10.37,2013-01-26 03:37:00,
2013-01-25 22:42:00,14.2,11.0,29.88,West,263,6.9,6.9,87,0.00,OVC,,0.00,WeatherDisplay:10.37,2013-01-26 03:42:00,
2013-01-25 22:47:00,14.2,11.0,29.88,WNW,293,5.8,5.8,87,0.00,OVC,,0.00,WeatherDisplay:10.37,2013-01-26 03:47:00,
2013-01-25 22:52:00,14.4,11.5,29.88,NW,306,5.8,0.0,88,0.00,OVC,,0.00,WeatherDisplay:10.37,2013-01-26 03:52:00,
2013-01-25 22:57:00,14.4,11.5,29.88,NW,322,8.1,8.1,88,0.00,OVC,,0.00,WeatherDisplay:10.37,2013-01-26 03:57:00,
2013-01-25 23:02:00,14.5,11.9,29.88,NW,314,9.2,9.2,89,0.00,OVC,,0.00,WeatherDisplay:10.37,2013-01-26 04:02:00,
2013-01-25 23:07:00,14.5,11.9,29.88,North,353,8.1,8.1,89,0.00,OVC,,0.00,WeatherDisplay:10.37,2013-01-26 04:07:00,
2013-01-25 23:12:00,14.7,12.3,29.88,WNW,293,5.8,5.8,90,0.00,OVC,,0.00,WeatherDisplay:10.37,2013-01-26 04:12:00,
2013-01-25 23:17:00,14.9,12.7,29.88,WNW,286,8.3,8.3,91,0.00,OVC,,0.00,WeatherDisplay:10.37,2013-01-26 04:17:00,
2013-01-25 23:22:00,14.9,12.7,29.91,WNW,295,8.1,8.1,91,0.00,OVC,,0.00,WeatherDisplay:10.37,2013-01-26 04:22:00,
2013-01-25 23:27:00,14.9,13.0,29.91,West,267,5.8,5.8,92,0.00,OVC,,0.00,WeatherDisplay:10.37,2013-01-26 04:27:00,
2013-01-25 23:32:00,15.1,13.2,29.91,WNW,294,8.1,8.1,92,0.00,OVC,,0.00,WeatherDisplay:10.37,2013-01-26 04:32:00,
2013-01-25 23:37:00,15.1,13.2,29.91,WNW,303,15.0,15.0,92,0.00,-SN,,0.00,WeatherDisplay:10.37,2013-01-26 04:37:00,
2013-01-25 23:42:00,15.1,13.2,29.91,West,274,8.1,8.1,92,0.00,-SN,,0.00,WeatherDisplay:10.37,2013-01-26 04:42:00,
2013-01-25 23:47:00,15.1,13.2,29.91,WNW,299,11.5,11.5,92,0.00,-SN,,0.00,WeatherDisplay:10.37,2013-01-26 04:47:00,
2013-01-25 23:52:00,15.3,13.6,29.91,WNW,282,8.1,8.1,93,0.00,-SN,,0.00,WeatherDisplay:10.37,2013-01-26 04:52:00,
2013-01-25 23:57:00,15.3,13.6,29.91,WNW,290,8.0,8.0,93,0.00,-SN,,0.00,WeatherDisplay:10.37,2013-01-26 04:57:00,